sensor_id;sensor_type;location;lat;lon;timestamp;P1;durP1;ratioP1;P2;durP2;ratioP2
31732;SDS011;18312;51.486;7.144;2024-02-23T00:00:48;1225.20;;;999.90;;
31732;SDS011;18312;51.486;7.144;2024-02-23T00:03:14;1214.03;;;999.90;;
31732;SDS011;18312;51.486;7.144;2024-02-23T00:05:41;1219.78;;;999.90;;
31732;SDS011;18312;51.486;7.144;2024-02-23T00:08:08;1208.78;;;999.90;;
31732;SDS011;18312;51.486;7.144;2024-02-23T00:10:36;1222.13;;;999.90;;
31732;SDS011;18312;51.486;7.144;2024-02-23T00:13:03;1225.13;;;999.90;;
31732;SDS011;18312;51.486;7.144;2024-02-23T00:15:30;1217.05;;;999.90;;
31732;SDS011;18312;51.486;7.144;2024-02-23T00:17:57;1207.82;;;999.90;;
31732;SDS011;18312;51.486;7.144;2024-02-23T00:20:24;1207.05;;;999.90;;
31732;SDS011;18312;51.486;7.144;2024-02-23T00:22:50;1209.65;;;999.90;;
31732;SDS011;18312;51.486;7.144;2024-02-23T00:25:18;1212.03;;;999.90;;
31732;SDS011;18312;51.486;7.144;2024-02-23T00:27:47;1214.93;;;999.90;;
31732;SDS011;18312;51.486;7.144;2024-02-23T00:30:14;1210.35;;;999.90;;
31732;SDS011;18312;51.486;7.144;2024-02-23T00:32:41;1214.88;;;999.90;;
31732;SDS011;18312;51.486;7.144;2024-02-23T00:35:08;1215.05;;;999.90;;
31732;SDS011;18312;51.486;7.144;2024-02-23T00:37:34;1217.75;;;999.90;;
31732;SDS011;18312;51.486;7.144;2024-02-23T00:40:01;1211.22;;;999.90;;
31732;SDS011;18312;51.486;7.144;2024-02-23T00:42:29;1208.78;;;999.90;;
31732;SDS011;18312;51.486;7.144;2024-02-23T00:44:57;1213.00;;;999.90;;
31732;SDS011;18312;51.486;7.144;2024-02-23T00:47:24;1214.53;;;999.90;;
31732;SDS011;18312;51.486;7.144;2024-02-23T00:49:50;1204.57;;;999.90;;
31732;SDS011;18312;51.486;7.144;2024-02-23T00:52:17;1210.13;;;999.90;;
31732;SDS011;18312;51.486;7.144;2024-02-23T00:54:44;1207.13;;;999.90;;
31732;SDS011;18312;51.486;7.144;2024-02-23T00:57:11;1206.05;;;999.90;;
31732;SDS011;18312;51.486;7.144;2024-02-23T00:59:38;1208.85;;;999.90;;
31732;SDS011;18312;51.486;7.144;2024-02-23T01:02:06;1204.37;;;999.90;;
31732;SDS011;18312;51.486;7.144;2024-02-23T01:04:33;1219.05;;;999.90;;
31732;SDS011;18312;51.486;7.144;2024-02-23T01:07:00;1211.80;;;999.90;;
31732;SDS011;18312;51.486;7.144;2024-02-23T01:09:27;1205.80;;;999.90;;
31732;SDS011;18312;51.486;7.144;2024-02-23T01:11:54;1206.28;;;999.90;;
31732;SDS011;18312;51.486;7.144;2024-02-23T01:14:21;1207.93;;;999.90;;
31732;SDS011;18312;51.486;7.144;2024-02-23T01:16:48;1208.82;;;999.90;;
31732;SDS011;18312;51.486;7.144;2024-02-23T01:19:16;1205.30;;;999.90;;
31732;SDS011;18312;51.486;7.144;2024-02-23T01:21:43;1204.30;;;999.90;;
31732;SDS011;18312;51.486;7.144;2024-02-23T01:24:10;1206.00;;;999.90;;
31732;SDS011;18312;51.486;7.144;2024-02-23T01:26:37;1204.65;;;999.90;;
31732;SDS011;18312;51.486;7.144;2024-02-23T01:29:04;1188.75;;;999.90;;
31732;SDS011;18312;51.486;7.144;2024-02-23T01:31:31;1193.97;;;999.90;;
31732;SDS011;18312;51.486;7.144;2024-02-23T01:33:58;1186.97;;;999.90;;
31732;SDS011;18312;51.486;7.144;2024-02-23T01:36:26;1192.38;;;999.90;;
31732;SDS011;18312;51.486;7.144;2024-02-23T01:38:53;1190.87;;;999.90;;
31732;SDS011;18312;51.486;7.144;2024-02-23T01:41:19;1185.50;;;999.90;;
31732;SDS011;18312;51.486;7.144;2024-02-23T01:43:46;1181.23;;;999.90;;
31732;SDS011;18312;51.486;7.144;2024-02-23T01:46:14;1178.67;;;999.90;;
31732;SDS011;18312;51.486;7.144;2024-02-23T01:48:44;1184.70;;;999.90;;
31732;SDS011;18312;51.486;7.144;2024-02-23T01:51:11;1176.63;;;999.90;;
31732;SDS011;18312;51.486;7.144;2024-02-23T01:53:41;1174.88;;;999.90;;
31732;SDS011;18312;51.486;7.144;2024-02-23T01:56:08;1175.18;;;999.90;;
31732;SDS011;18312;51.486;7.144;2024-02-23T01:58:37;1177.40;;;999.90;;
31732;SDS011;18312;51.486;7.144;2024-02-23T02:01:04;1178.68;;;999.90;;
31732;SDS011;18312;51.486;7.144;2024-02-23T02:03:32;1180.13;;;999.90;;
31732;SDS011;18312;51.486;7.144;2024-02-23T02:05:59;1180.40;;;999.90;;
31732;SDS011;18312;51.486;7.144;2024-02-23T02:08:26;1180.28;;;999.90;;
31732;SDS011;18312;51.486;7.144;2024-02-23T02:10:55;1181.30;;;999.90;;
31732;SDS011;18312;51.486;7.144;2024-02-23T02:13:21;1176.25;;;999.90;;
31732;SDS011;18312;51.486;7.144;2024-02-23T02:15:48;1175.65;;;999.90;;
31732;SDS011;18312;51.486;7.144;2024-02-23T02:18:15;1180.22;;;999.90;;
31732;SDS011;18312;51.486;7.144;2024-02-23T02:20:46;1178.55;;;999.90;;
31732;SDS011;18312;51.486;7.144;2024-02-23T02:23:18;1172.75;;;999.90;;
31732;SDS011;18312;51.486;7.144;2024-02-23T02:25:45;1176.15;;;999.90;;
31732;SDS011;18312;51.486;7.144;2024-02-23T02:28:19;1176.03;;;999.90;;
31732;SDS011;18312;51.486;7.144;2024-02-23T02:30:46;1179.87;;;999.90;;
31732;SDS011;18312;51.486;7.144;2024-02-23T02:33:13;1178.53;;;999.90;;
31732;SDS011;18312;51.486;7.144;2024-02-23T02:35:40;1179.50;;;999.90;;
31732;SDS011;18312;51.486;7.144;2024-02-23T02:38:06;1180.75;;;999.90;;
31732;SDS011;18312;51.486;7.144;2024-02-23T02:40:35;1175.28;;;999.90;;
31732;SDS011;18312;51.486;7.144;2024-02-23T02:43:01;1181.55;;;999.90;;
31732;SDS011;18312;51.486;7.144;2024-02-23T02:45:30;1185.85;;;999.90;;
31732;SDS011;18312;51.486;7.144;2024-02-23T02:47:59;1181.63;;;999.90;;
31732;SDS011;18312;51.486;7.144;2024-02-23T02:50:27;1191.77;;;999.90;;
31732;SDS011;18312;51.486;7.144;2024-02-23T02:52:54;1180.23;;;999.90;;
31732;SDS011;18312;51.486;7.144;2024-02-23T02:55:21;1192.25;;;999.90;;
31732;SDS011;18312;51.486;7.144;2024-02-23T02:57:48;1193.05;;;999.90;;
31732;SDS011;18312;51.486;7.144;2024-02-23T03:00:15;1189.22;;;999.90;;
31732;SDS011;18312;51.486;7.144;2024-02-23T03:02:44;1190.13;;;999.90;;
31732;SDS011;18312;51.486;7.144;2024-02-23T03:05:11;1192.32;;;999.90;;
31732;SDS011;18312;51.486;7.144;2024-02-23T03:07:38;1191.38;;;999.90;;
31732;SDS011;18312;51.486;7.144;2024-02-23T03:10:05;1180.35;;;999.90;;
31732;SDS011;18312;51.486;7.144;2024-02-23T03:12:33;1177.93;;;999.90;;
31732;SDS011;18312;51.486;7.144;2024-02-23T03:14:59;1188.20;;;999.90;;
31732;SDS011;18312;51.486;7.144;2024-02-23T03:17:27;1174.03;;;999.90;;
31732;SDS011;18312;51.486;7.144;2024-02-23T03:19:56;1172.50;;;999.90;;
31732;SDS011;18312;51.486;7.144;2024-02-23T03:22:24;1174.00;;;999.90;;
31732;SDS011;18312;51.486;7.144;2024-02-23T03:24:51;1183.25;;;999.90;;
31732;SDS011;18312;51.486;7.144;2024-02-23T03:27:18;1170.47;;;999.90;;
31732;SDS011;18312;51.486;7.144;2024-02-23T03:29:45;1179.03;;;999.90;;
31732;SDS011;18312;51.486;7.144;2024-02-23T03:32:12;1185.15;;;999.90;;
31732;SDS011;18312;51.486;7.144;2024-02-23T03:34:39;1172.23;;;999.90;;
31732;SDS011;18312;51.486;7.144;2024-02-23T03:37:07;1168.20;;;999.90;;
31732;SDS011;18312;51.486;7.144;2024-02-23T03:39:34;1178.15;;;999.90;;
31732;SDS011;18312;51.486;7.144;2024-02-23T03:42:02;1176.95;;;999.90;;
31732;SDS011;18312;51.486;7.144;2024-02-23T03:44:29;1182.10;;;999.90;;
31732;SDS011;18312;51.486;7.144;2024-02-23T03:46:56;1197.85;;;999.90;;
31732;SDS011;18312;51.486;7.144;2024-02-23T03:49:23;1182.68;;;999.90;;
31732;SDS011;18312;51.486;7.144;2024-02-23T03:51:51;1200.95;;;999.90;;
31732;SDS011;18312;51.486;7.144;2024-02-23T03:54:20;1194.28;;;999.90;;
31732;SDS011;18312;51.486;7.144;2024-02-23T03:56:46;1202.33;;;999.90;;
31732;SDS011;18312;51.486;7.144;2024-02-23T03:59:13;1198.07;;;999.90;;
31732;SDS011;18312;51.486;7.144;2024-02-23T04:01:40;1195.20;;;999.90;;
31732;SDS011;18312;51.486;7.144;2024-02-23T04:06:44;1188.80;;;999.90;;
31732;SDS011;18312;51.486;7.144;2024-02-23T04:09:11;1195.18;;;999.90;;
31732;SDS011;18312;51.486;7.144;2024-02-23T04:11:39;1188.00;;;999.90;;
31732;SDS011;18312;51.486;7.144;2024-02-23T04:14:06;1182.90;;;999.90;;
31732;SDS011;18312;51.486;7.144;2024-02-23T04:16:34;1191.82;;;999.90;;
31732;SDS011;18312;51.486;7.144;2024-02-23T04:19:01;1194.97;;;999.90;;
31732;SDS011;18312;51.486;7.144;2024-02-23T04:21:28;1177.93;;;999.90;;
31732;SDS011;18312;51.486;7.144;2024-02-23T04:23:55;1189.35;;;999.90;;
31732;SDS011;18312;51.486;7.144;2024-02-23T04:26:22;1183.40;;;999.90;;
31732;SDS011;18312;51.486;7.144;2024-02-23T04:28:50;1176.85;;;999.90;;
31732;SDS011;18312;51.486;7.144;2024-02-23T04:31:17;1181.82;;;999.90;;
31732;SDS011;18312;51.486;7.144;2024-02-23T04:33:43;1178.05;;;999.90;;
31732;SDS011;18312;51.486;7.144;2024-02-23T04:36:10;1176.90;;;999.90;;
31732;SDS011;18312;51.486;7.144;2024-02-23T04:38:37;1177.47;;;999.90;;
31732;SDS011;18312;51.486;7.144;2024-02-23T04:41:04;1176.88;;;999.90;;
31732;SDS011;18312;51.486;7.144;2024-02-23T04:43:32;1174.65;;;999.90;;
31732;SDS011;18312;51.486;7.144;2024-02-23T04:46:03;1176.00;;;999.90;;
31732;SDS011;18312;51.486;7.144;2024-02-23T04:48:30;1180.07;;;999.90;;
31732;SDS011;18312;51.486;7.144;2024-02-23T04:50:57;1174.65;;;999.90;;
31732;SDS011;18312;51.486;7.144;2024-02-23T04:53:25;1177.18;;;999.90;;
31732;SDS011;18312;51.486;7.144;2024-02-23T04:55:51;1179.97;;;999.90;;
31732;SDS011;18312;51.486;7.144;2024-02-23T04:58:18;1175.13;;;999.90;;
31732;SDS011;18312;51.486;7.144;2024-02-23T05:00:45;1179.93;;;999.90;;
31732;SDS011;18312;51.486;7.144;2024-02-23T05:03:14;1172.00;;;999.90;;
31732;SDS011;18312;51.486;7.144;2024-02-23T05:05:41;1175.78;;;999.90;;
31732;SDS011;18312;51.486;7.144;2024-02-23T05:08:08;1175.30;;;999.90;;
31732;SDS011;18312;51.486;7.144;2024-02-23T05:10:35;1177.95;;;999.90;;
31732;SDS011;18312;51.486;7.144;2024-02-23T05:13:01;1182.15;;;999.90;;
31732;SDS011;18312;51.486;7.144;2024-02-23T05:15:29;1177.20;;;999.90;;
31732;SDS011;18312;51.486;7.144;2024-02-23T05:17:56;1177.13;;;999.90;;
31732;SDS011;18312;51.486;7.144;2024-02-23T05:20:24;1180.20;;;999.90;;
31732;SDS011;18312;51.486;7.144;2024-02-23T05:22:51;1181.13;;;999.90;;
31732;SDS011;18312;51.486;7.144;2024-02-23T05:25:18;1174.00;;;999.90;;
31732;SDS011;18312;51.486;7.144;2024-02-23T05:27:45;1177.68;;;999.90;;
31732;SDS011;18312;51.486;7.144;2024-02-23T05:30:12;1173.35;;;999.90;;
31732;SDS011;18312;51.486;7.144;2024-02-23T05:32:39;1173.85;;;999.90;;
31732;SDS011;18312;51.486;7.144;2024-02-23T05:35:06;1177.97;;;999.90;;
31732;SDS011;18312;51.486;7.144;2024-02-23T05:37:35;1178.18;;;999.90;;
31732;SDS011;18312;51.486;7.144;2024-02-23T05:40:02;1180.47;;;999.90;;
31732;SDS011;18312;51.486;7.144;2024-02-23T05:42:32;1180.15;;;999.90;;
31732;SDS011;18312;51.486;7.144;2024-02-23T05:45:01;1180.07;;;999.90;;
31732;SDS011;18312;51.486;7.144;2024-02-23T05:47:29;1180.93;;;999.90;;
31732;SDS011;18312;51.486;7.144;2024-02-23T05:49:57;1227.63;;;999.90;;
31732;SDS011;18312;51.486;7.144;2024-02-23T05:52:23;1199.47;;;999.90;;
31732;SDS011;18312;51.486;7.144;2024-02-23T05:54:52;1224.57;;;999.90;;
31732;SDS011;18312;51.486;7.144;2024-02-23T05:57:21;1292.30;;;999.90;;
31732;SDS011;18312;51.486;7.144;2024-02-23T05:59:48;1282.77;;;999.90;;
31732;SDS011;18312;51.486;7.144;2024-02-23T06:02:15;1199.72;;;999.90;;
31732;SDS011;18312;51.486;7.144;2024-02-23T06:04:42;1188.60;;;999.90;;
31732;SDS011;18312;51.486;7.144;2024-02-23T06:07:10;1189.10;;;999.90;;
31732;SDS011;18312;51.486;7.144;2024-02-23T06:09:37;1188.13;;;999.90;;
31732;SDS011;18312;51.486;7.144;2024-02-23T06:12:06;1184.30;;;999.90;;
31732;SDS011;18312;51.486;7.144;2024-02-23T06:14:40;1280.97;;;999.90;;
31732;SDS011;18312;51.486;7.144;2024-02-23T06:17:07;1244.80;;;999.90;;
31732;SDS011;18312;51.486;7.144;2024-02-23T06:19:35;1338.97;;;999.90;;
31732;SDS011;18312;51.486;7.144;2024-02-23T06:22:02;1285.15;;;999.90;;
31732;SDS011;18312;51.486;7.144;2024-02-23T06:24:30;1250.93;;;999.90;;
31732;SDS011;18312;51.486;7.144;2024-02-23T06:27:03;1261.55;;;999.90;;
31732;SDS011;18312;51.486;7.144;2024-02-23T06:29:32;1233.38;;;999.90;;
31732;SDS011;18312;51.486;7.144;2024-02-23T06:32:04;1214.18;;;999.90;;
31732;SDS011;18312;51.486;7.144;2024-02-23T06:34:33;1167.07;;;999.90;;
31732;SDS011;18312;51.486;7.144;2024-02-23T06:37:00;1170.47;;;999.90;;
31732;SDS011;18312;51.486;7.144;2024-02-23T06:39:28;1175.63;;;999.90;;
31732;SDS011;18312;51.486;7.144;2024-02-23T06:42:01;1175.03;;;999.90;;
31732;SDS011;18312;51.486;7.144;2024-02-23T06:44:29;1186.55;;;999.90;;
31732;SDS011;18312;51.486;7.144;2024-02-23T06:49:34;1174.03;;;999.90;;
31732;SDS011;18312;51.486;7.144;2024-02-23T06:52:01;1167.00;;;999.90;;
31732;SDS011;18312;51.486;7.144;2024-02-23T06:54:40;1165.32;;;999.90;;
31732;SDS011;18312;51.486;7.144;2024-02-23T06:57:06;1178.82;;;999.90;;
31732;SDS011;18312;51.486;7.144;2024-02-23T06:59:33;1176.93;;;999.90;;
31732;SDS011;18312;51.486;7.144;2024-02-23T07:02:08;1163.43;;;999.90;;
31732;SDS011;18312;51.486;7.144;2024-02-23T07:04:35;1173.95;;;999.90;;
31732;SDS011;18312;51.486;7.144;2024-02-23T07:07:03;1171.43;;;999.90;;
31732;SDS011;18312;51.486;7.144;2024-02-23T07:09:32;1164.32;;;999.90;;
31732;SDS011;18312;51.486;7.144;2024-02-23T07:11:59;1178.53;;;999.90;;
31732;SDS011;18312;51.486;7.144;2024-02-23T07:14:27;1169.65;;;999.90;;
31732;SDS011;18312;51.486;7.144;2024-02-23T07:16:55;1161.60;;;999.90;;
31732;SDS011;18312;51.486;7.144;2024-02-23T07:19:26;1167.40;;;999.90;;
31732;SDS011;18312;51.486;7.144;2024-02-23T07:21:53;1176.05;;;999.90;;
31732;SDS011;18312;51.486;7.144;2024-02-23T07:24:20;1159.97;;;999.90;;
31732;SDS011;18312;51.486;7.144;2024-02-23T07:26:47;1158.13;;;999.90;;
31732;SDS011;18312;51.486;7.144;2024-02-23T07:29:20;1161.55;;;999.90;;
31732;SDS011;18312;51.486;7.144;2024-02-23T07:31:48;1162.80;;;999.90;;
31732;SDS011;18312;51.486;7.144;2024-02-23T07:34:17;1166.07;;;999.90;;
31732;SDS011;18312;51.486;7.144;2024-02-23T07:36:56;1177.65;;;999.90;;
31732;SDS011;18312;51.486;7.144;2024-02-23T07:39:23;1197.65;;;999.90;;
31732;SDS011;18312;51.486;7.144;2024-02-23T07:41:52;1204.68;;;999.90;;
31732;SDS011;18312;51.486;7.144;2024-02-23T07:44:22;1223.38;;;999.90;;
31732;SDS011;18312;51.486;7.144;2024-02-23T07:46:52;1228.43;;;999.90;;
31732;SDS011;18312;51.486;7.144;2024-02-23T07:49:20;1238.10;;;999.90;;
31732;SDS011;18312;51.486;7.144;2024-02-23T07:51:49;1246.97;;;999.90;;
31732;SDS011;18312;51.486;7.144;2024-02-23T07:54:17;1249.05;;;999.90;;
31732;SDS011;18312;51.486;7.144;2024-02-23T07:56:45;1249.43;;;999.90;;
31732;SDS011;18312;51.486;7.144;2024-02-23T07:59:12;1248.43;;;999.90;;
31732;SDS011;18312;51.486;7.144;2024-02-23T08:01:39;1252.72;;;999.90;;
31732;SDS011;18312;51.486;7.144;2024-02-23T08:04:07;1241.43;;;999.90;;
31732;SDS011;18312;51.486;7.144;2024-02-23T08:06:34;1237.40;;;999.90;;
31732;SDS011;18312;51.486;7.144;2024-02-23T08:09:08;1218.97;;;999.90;;
31732;SDS011;18312;51.486;7.144;2024-02-23T08:11:36;1216.07;;;999.90;;
31732;SDS011;18312;51.486;7.144;2024-02-23T08:14:03;1218.55;;;999.90;;
31732;SDS011;18312;51.486;7.144;2024-02-23T08:16:30;1212.13;;;999.90;;
31732;SDS011;18312;51.486;7.144;2024-02-23T08:19:03;1213.82;;;999.90;;
31732;SDS011;18312;51.486;7.144;2024-02-23T08:21:31;1215.47;;;999.90;;
31732;SDS011;18312;51.486;7.144;2024-02-23T08:24:01;1215.55;;;999.90;;
31732;SDS011;18312;51.486;7.144;2024-02-23T08:26:29;1216.57;;;999.90;;
31732;SDS011;18312;51.486;7.144;2024-02-23T08:28:57;1227.43;;;999.90;;
31732;SDS011;18312;51.486;7.144;2024-02-23T08:31:24;1223.60;;;999.90;;
31732;SDS011;18312;51.486;7.144;2024-02-23T08:33:51;1223.60;;;999.90;;
31732;SDS011;18312;51.486;7.144;2024-02-23T08:36:18;1223.38;;;999.90;;
31732;SDS011;18312;51.486;7.144;2024-02-23T08:38:45;1224.47;;;999.90;;
31732;SDS011;18312;51.486;7.144;2024-02-23T08:41:12;1214.07;;;999.90;;
31732;SDS011;18312;51.486;7.144;2024-02-23T08:43:40;1211.32;;;999.90;;
31732;SDS011;18312;51.486;7.144;2024-02-23T08:46:09;1215.22;;;999.90;;
31732;SDS011;18312;51.486;7.144;2024-02-23T08:48:38;1205.45;;;999.90;;
31732;SDS011;18312;51.486;7.144;2024-02-23T08:51:05;1210.40;;;999.90;;
31732;SDS011;18312;51.486;7.144;2024-02-23T08:53:32;1214.30;;;999.90;;
31732;SDS011;18312;51.486;7.144;2024-02-23T08:56:00;1215.55;;;999.90;;
31732;SDS011;18312;51.486;7.144;2024-02-23T08:58:28;1216.00;;;999.90;;
31732;SDS011;18312;51.486;7.144;2024-02-23T09:00:56;1224.18;;;999.90;;
31732;SDS011;18312;51.486;7.144;2024-02-23T09:03:24;1222.78;;;999.90;;
31732;SDS011;18312;51.486;7.144;2024-02-23T09:05:51;1218.90;;;999.90;;
31732;SDS011;18312;51.486;7.144;2024-02-23T09:08:18;1220.78;;;999.90;;
31732;SDS011;18312;51.486;7.144;2024-02-23T09:10:46;1220.25;;;999.90;;
31732;SDS011;18312;51.486;7.144;2024-02-23T09:13:17;1221.85;;;999.90;;
31732;SDS011;18312;51.486;7.144;2024-02-23T09:15:45;1224.38;;;999.90;;
31732;SDS011;18312;51.486;7.144;2024-02-23T09:18:14;1225.50;;;999.90;;
31732;SDS011;18312;51.486;7.144;2024-02-23T09:20:42;1219.80;;;999.90;;
31732;SDS011;18312;51.486;7.144;2024-02-23T09:23:09;1223.53;;;999.90;;
31732;SDS011;18312;51.486;7.144;2024-02-23T09:25:37;1223.85;;;999.90;;
31732;SDS011;18312;51.486;7.144;2024-02-23T09:28:06;1227.18;;;999.90;;
31732;SDS011;18312;51.486;7.144;2024-02-23T09:30:36;1229.47;;;999.90;;
31732;SDS011;18312;51.486;7.144;2024-02-23T09:33:03;1226.53;;;999.90;;
31732;SDS011;18312;51.486;7.144;2024-02-23T09:35:30;1226.70;;;999.90;;
31732;SDS011;18312;51.486;7.144;2024-02-23T09:37:58;1222.67;;;999.90;;
31732;SDS011;18312;51.486;7.144;2024-02-23T09:40:27;1229.15;;;999.90;;
31732;SDS011;18312;51.486;7.144;2024-02-23T09:42:55;1230.95;;;999.90;;
31732;SDS011;18312;51.486;7.144;2024-02-23T09:45:24;1249.07;;;999.90;;
31732;SDS011;18312;51.486;7.144;2024-02-23T09:47:52;1241.82;;;999.90;;
31732;SDS011;18312;51.486;7.144;2024-02-23T09:50:21;1247.90;;;999.90;;
31732;SDS011;18312;51.486;7.144;2024-02-23T09:52:49;1245.93;;;999.90;;
31732;SDS011;18312;51.486;7.144;2024-02-23T09:55:21;1243.65;;;999.90;;
31732;SDS011;18312;51.486;7.144;2024-02-23T09:57:49;1249.10;;;999.90;;
31732;SDS011;18312;51.486;7.144;2024-02-23T10:00:21;1251.73;;;999.90;;
31732;SDS011;18312;51.486;7.144;2024-02-23T10:02:52;1259.87;;;999.90;;
31732;SDS011;18312;51.486;7.144;2024-02-23T10:05:28;1249.25;;;999.90;;
31732;SDS011;18312;51.486;7.144;2024-02-23T10:08:04;1259.25;;;999.90;;
31732;SDS011;18312;51.486;7.144;2024-02-23T10:10:34;1253.70;;;999.90;;
31732;SDS011;18312;51.486;7.144;2024-02-23T10:13:01;1249.70;;;999.90;;
31732;SDS011;18312;51.486;7.144;2024-02-23T10:15:30;1261.15;;;999.90;;
31732;SDS011;18312;51.486;7.144;2024-02-23T10:17:57;1261.32;;;999.90;;
31732;SDS011;18312;51.486;7.144;2024-02-23T10:20:24;1250.63;;;999.90;;
31732;SDS011;18312;51.486;7.144;2024-02-23T10:22:51;1251.40;;;999.90;;
31732;SDS011;18312;51.486;7.144;2024-02-23T10:25:19;1255.32;;;999.90;;
31732;SDS011;18312;51.486;7.144;2024-02-23T10:27:47;1258.47;;;999.90;;
31732;SDS011;18312;51.486;7.144;2024-02-23T10:30:14;1342.03;;;999.90;;
31732;SDS011;18312;51.486;7.144;2024-02-23T10:32:41;1350.83;;;999.90;;
31732;SDS011;18312;51.486;7.144;2024-02-23T10:35:10;1266.55;;;999.90;;
31732;SDS011;18312;51.486;7.144;2024-02-23T10:40:15;1340.22;;;999.90;;
31732;SDS011;18312;51.486;7.144;2024-02-23T10:42:46;1332.32;;;999.90;;
31732;SDS011;18312;51.486;7.144;2024-02-23T10:47:48;1329.28;;;999.90;;
31732;SDS011;18312;51.486;7.144;2024-02-23T10:50:17;1345.53;;;999.90;;
31732;SDS011;18312;51.486;7.144;2024-02-23T10:52:44;1333.35;;;999.90;;
31732;SDS011;18312;51.486;7.144;2024-02-23T10:55:14;1341.15;;;999.90;;
31732;SDS011;18312;51.486;7.144;2024-02-23T10:57:41;1342.95;;;999.90;;
31732;SDS011;18312;51.486;7.144;2024-02-23T11:02:45;1347.15;;;999.90;;
31732;SDS011;18312;51.486;7.144;2024-02-23T11:05:14;1331.78;;;999.90;;
31732;SDS011;18312;51.486;7.144;2024-02-23T11:10:14;1351.40;;;999.90;;
31732;SDS011;18312;51.486;7.144;2024-02-23T11:12:41;1377.22;;;999.90;;
31732;SDS011;18312;51.486;7.144;2024-02-23T11:15:10;1361.07;;;999.90;;
31732;SDS011;18312;51.486;7.144;2024-02-23T11:17:54;1337.47;;;999.90;;
31732;SDS011;18312;51.486;7.144;2024-02-23T11:20:21;1346.70;;;999.90;;
31732;SDS011;18312;51.486;7.144;2024-02-23T11:22:51;1353.38;;;999.90;;
31732;SDS011;18312;51.486;7.144;2024-02-23T11:25:19;1326.72;;;999.90;;
31732;SDS011;18312;51.486;7.144;2024-02-23T11:27:52;1364.60;;;999.90;;
31732;SDS011;18312;51.486;7.144;2024-02-23T11:30:19;1363.93;;;999.90;;
31732;SDS011;18312;51.486;7.144;2024-02-23T11:32:47;1275.82;;;999.90;;
31732;SDS011;18312;51.486;7.144;2024-02-23T11:35:19;1272.95;;;999.90;;
31732;SDS011;18312;51.486;7.144;2024-02-23T11:37:52;1341.00;;;999.90;;
31732;SDS011;18312;51.486;7.144;2024-02-23T11:40:24;1342.30;;;999.90;;
31732;SDS011;18312;51.486;7.144;2024-02-23T11:42:51;1339.57;;;999.90;;
31732;SDS011;18312;51.486;7.144;2024-02-23T11:45:20;1337.70;;;999.90;;
31732;SDS011;18312;51.486;7.144;2024-02-23T11:47:49;1346.75;;;999.90;;
31732;SDS011;18312;51.486;7.144;2024-02-23T11:50:16;1330.55;;;999.90;;
31732;SDS011;18312;51.486;7.144;2024-02-23T11:52:46;1324.30;;;999.90;;
31732;SDS011;18312;51.486;7.144;2024-02-23T11:55:17;1316.57;;;999.90;;
31732;SDS011;18312;51.486;7.144;2024-02-23T11:57:47;1335.65;;;999.90;;
31732;SDS011;18312;51.486;7.144;2024-02-23T12:00:15;1319.47;;;999.90;;
31732;SDS011;18312;51.486;7.144;2024-02-23T12:02:43;1315.57;;;999.90;;
31732;SDS011;18312;51.486;7.144;2024-02-23T12:05:12;1318.47;;;999.90;;
31732;SDS011;18312;51.486;7.144;2024-02-23T12:07:40;1332.00;;;999.90;;
31732;SDS011;18312;51.486;7.144;2024-02-23T12:10:10;1292.05;;;999.90;;
31732;SDS011;18312;51.486;7.144;2024-02-23T12:12:41;1263.68;;;999.90;;
31732;SDS011;18312;51.486;7.144;2024-02-23T12:15:12;1350.47;;;999.90;;
31732;SDS011;18312;51.486;7.144;2024-02-23T12:17:46;1320.80;;;999.90;;
31732;SDS011;18312;51.486;7.144;2024-02-23T12:20:15;1366.03;;;999.90;;
31732;SDS011;18312;51.486;7.144;2024-02-23T12:22:42;1325.60;;;999.90;;
31732;SDS011;18312;51.486;7.144;2024-02-23T12:25:09;1258.40;;;999.90;;
31732;SDS011;18312;51.486;7.144;2024-02-23T12:27:38;1261.57;;;999.90;;
31732;SDS011;18312;51.486;7.144;2024-02-23T12:30:05;1257.90;;;999.90;;
31732;SDS011;18312;51.486;7.144;2024-02-23T12:32:39;1255.65;;;999.90;;
31732;SDS011;18312;51.486;7.144;2024-02-23T12:35:06;1261.25;;;999.90;;
31732;SDS011;18312;51.486;7.144;2024-02-23T12:37:35;1256.93;;;999.90;;
31732;SDS011;18312;51.486;7.144;2024-02-23T12:40:02;1255.10;;;999.90;;
31732;SDS011;18312;51.486;7.144;2024-02-23T12:42:30;1257.10;;;999.90;;
31732;SDS011;18312;51.486;7.144;2024-02-23T12:44:57;1259.65;;;999.90;;
31732;SDS011;18312;51.486;7.144;2024-02-23T12:47:24;1253.97;;;999.90;;
31732;SDS011;18312;51.486;7.144;2024-02-23T12:49:50;1261.78;;;999.90;;
31732;SDS011;18312;51.486;7.144;2024-02-23T12:52:17;1255.22;;;999.90;;
31732;SDS011;18312;51.486;7.144;2024-02-23T12:54:46;1257.53;;;999.90;;
31732;SDS011;18312;51.486;7.144;2024-02-23T12:57:13;1261.25;;;999.90;;
31732;SDS011;18312;51.486;7.144;2024-02-23T12:59:39;1261.57;;;999.90;;
31732;SDS011;18312;51.486;7.144;2024-02-23T13:02:06;1261.80;;;999.90;;
31732;SDS011;18312;51.486;7.144;2024-02-23T13:04:36;1261.13;;;999.90;;
31732;SDS011;18312;51.486;7.144;2024-02-23T13:07:03;1315.35;;;999.90;;
31732;SDS011;18312;51.486;7.144;2024-02-23T13:09:30;1269.90;;;999.90;;
31732;SDS011;18312;51.486;7.144;2024-02-23T13:11:59;1280.45;;;999.90;;
31732;SDS011;18312;51.486;7.144;2024-02-23T13:14:25;1273.53;;;999.90;;
31732;SDS011;18312;51.486;7.144;2024-02-23T13:16:52;1290.68;;;999.90;;
31732;SDS011;18312;51.486;7.144;2024-02-23T13:19:19;1278.38;;;999.90;;
31732;SDS011;18312;51.486;7.144;2024-02-23T13:21:46;1268.45;;;999.90;;
31732;SDS011;18312;51.486;7.144;2024-02-23T13:24:13;1274.45;;;999.90;;
31732;SDS011;18312;51.486;7.144;2024-02-23T13:26:40;1274.90;;;999.90;;
31732;SDS011;18312;51.486;7.144;2024-02-23T13:29:08;1274.30;;;999.90;;
31732;SDS011;18312;51.486;7.144;2024-02-23T13:31:35;1271.75;;;999.90;;
31732;SDS011;18312;51.486;7.144;2024-02-23T13:34:04;1272.75;;;999.90;;
31732;SDS011;18312;51.486;7.144;2024-02-23T13:36:31;1270.95;;;999.90;;
31732;SDS011;18312;51.486;7.144;2024-02-23T13:38:58;1275.47;;;999.90;;
31732;SDS011;18312;51.486;7.144;2024-02-23T13:41:25;1266.95;;;999.90;;
31732;SDS011;18312;51.486;7.144;2024-02-23T13:43:52;1331.55;;;999.90;;
31732;SDS011;18312;51.486;7.144;2024-02-23T13:46:22;1323.00;;;999.90;;
31732;SDS011;18312;51.486;7.144;2024-02-23T13:48:49;1270.20;;;999.90;;
31732;SDS011;18312;51.486;7.144;2024-02-23T13:51:29;1266.22;;;999.90;;
31732;SDS011;18312;51.486;7.144;2024-02-23T13:53:56;1273.43;;;999.90;;
31732;SDS011;18312;51.486;7.144;2024-02-23T13:56:23;1279.95;;;999.90;;
31732;SDS011;18312;51.486;7.144;2024-02-23T13:58:50;1298.90;;;999.90;;
31732;SDS011;18312;51.486;7.144;2024-02-23T14:01:17;1274.40;;;999.90;;
31732;SDS011;18312;51.486;7.144;2024-02-23T14:03:45;1275.53;;;999.90;;